senior outdoor 2019

Half Marathon male

Filter Top Lists

Filter Top Lists

Limit: 1:11:00

Rank Mark Competitor DOB Nat Pos Venue Date Results Score
1 58:42 Stephen KIPROP 08 SEP 1999 KEN KEN 1 Ras Al Khaimah (UAE) 08 FEB 2019 1248
2 58:44 Abadi HADIS 06 NOV 1997 ETH ETH 2 Ras Al Khaimah (UAE) 08 FEB 2019 1246
3 59:07 Benard KIMELI 10 SEP 1995 KEN KEN 1 Praha (CZE) 06 APR 2019 1230
4 59:08 Fikadu HAFTU 21 FEB 1994 ETH ETH 3 Ras Al Khaimah (UAE) 08 FEB 2019 1229
4 59:08 Felix KIBITOK 09 JUN 1991 KEN KEN 2 Praha (CZE) 06 APR 2019 1229
6 59:13 Julien WANDERS 18 MAR 1996 SUI SUI 4 Ras Al Khaimah (UAE) 08 FEB 2019 1226
7 59:22 Morris Munene GACHAGA 07 APR 1995 KEN KEN 5 Ras Al Khaimah (UAE) 08 FEB 2019 1219
8 59:34 Mule WASIHUN 20 OCT 1993 ETH ETH 6 Ras Al Khaimah (UAE) 08 FEB 2019 1211
9 59:36 Daniel KIPCHUMBA 12 DEC 1997 KEN KEN 7 Ras Al Khaimah (UAE) 08 FEB 2019 1209
9 59:36 Mosinet GEREMEW 12 FEB 1992 ETH ETH 1 Lisboa (POR) 17 MAR 2019 1209
11 59:39 Amedework WALELEGN 11 MAR 1999 ETH ETH 8 Ras Al Khaimah (UAE) 08 FEB 2019 1207
12 59:40 Abel KIPCHUMBA 03 FEB 1994 KEN KEN 9 Ras Al Khaimah (UAE) 08 FEB 2019 1207
13 59:41 Berehanu TSEGU 30 SEP 1999 ETH ETH 2 Lisboa (POR) 17 MAR 2019 1206
14 59:42 Shadrack KIMINING 10 FEB 1996 KEN KEN 10 Ras Al Khaimah (UAE) 08 FEB 2019 1205
15 59:44 Isaac KIPSANG 20 FEB 1999 KEN KEN 3 Lisboa (POR) 17 MAR 2019 1204
16 59:45 Jemal Yimer MEKONNEN 11 SEP 1996 ETH ETH 2 Manama (BRN) 15 MAR 2019 1203
17 59:46 Abrar Osman OSMAN 01 JUL 1994 ERI ERI 4 Lisboa (POR) 17 MAR 2019 1202
18 59:47 Bernard Kipkorir NGENO KEN KEN 3 Manama (BRN) 15 MAR 2019 1202
19 59:48 Kaan Kigen ÖZBILEN 15 JAN 1986 TUR TUR 11 Ras Al Khaimah (UAE) 08 FEB 2019 1201
20 59:53 Kelvin KIPTUM 02 DEC 1999 KEN KEN 5 Lisboa (POR) 17 MAR 2019 1197
21 59:56 Benard NGENO KEN KEN 1 Istanbul (TUR) 07 APR 2019 1195
22 59:57 Edwin KIPTOO 14 AUG 1993 KEN KEN 6 Lisboa (POR) 17 MAR 2019 1195
23 59:58 Abayneh DEGU 01 DEC 1998 ETH ETH 2 Istanbul (TUR) 07 APR 2019 1194
23 59:58 Moses KIBET 04 FEB 1997 KEN KEN 2 Yangzhou (CHN) 21 APR 2019 1194
25 1:00:01 Dawit FIKADU 28 DEC 1995 BRN BRN 5 Manama (BRN) 15 MAR 2019 1192
25 1:00:01 Hillary KIPCHUMBA 1992 KEN KEN 3 Istanbul (TUR) 07 APR 2019 1192
27 1:00:04 Abraham KIPTUM 15 SEP 1989 KEN KEN 6 Manama (BRN) 15 MAR 2019 1190
28 1:00:09 John LOTIANG 18 MAR 1991 KEN KEN 7 Lisboa (POR) 17 MAR 2019 1186
29 1:00:10 Vincent RERIMOI 16 JUL 1996 KEN KEN 1 Milano (ITA) 24 MAR 2019 1186
30 1:00:11 Tola SHURA KITATA 09 JUN 1996 ETH ETH 1 Houston, TX (USA) 20 JAN 2019 1185
30 1:00:11 Bernard KIMANI 10 SEP 1993 KEN KEN 8 Lisboa (POR) 17 MAR 2019 1185
32 1:00:12 Simon CHEPROT 18 FEB 1990 KEN KEN 9 Lisboa (POR) 17 MAR 2019 1184
33 1:00:18 Bedan KAROKI 21 AUG 1990 KEN KEN 3 Houston, TX (USA) 20 JAN 2019 1180
34 1:00:20 Nicholas Mboroto KOSIMBEI 01 OCT 1996 KEN KEN 10 Lisboa (POR) 17 MAR 2019 1179
35 1:00:21 Robert KIPCHIRCHIR 11 APR 1998 KEN KEN 1 Venlo (NED) 31 MAR 2019 1178
36 1:00:24 Abdi NAGEEYE 02 MAR 1989 NED NED 1 Marugame (JPN) 03 FEB 2019 1176
36 1:00:24 William WANJIKU 07 MAY 1995 KEN KEN 1 Zwolle (NED) 15 JUN 2019 1176
38 1:00:26 Gabriel Gerald GEAY 10 SEP 1996 TAN TAN 4 Houston, TX (USA) 20 JAN 2019 1174
38 1:00:26 Getaneh MOLLA 10 JAN 1994 ETH ETH 8 Manama (BRN) 15 MAR 2019 1174
38 1:00:26 Polat Kemboi ARIKAN 12 DEC 1990 TUR TUR 11 Lisboa (POR) 17 MAR 2019 1174
38 1:00:26 Haymanot ALEWE 11 NOV 1997 ETH ETH 4 Istanbul (TUR) 07 APR 2019 1174
38 1:00:26 Adugna TAKELE 26 FEB 1989 ETH ETH 5 Istanbul (TUR) 07 APR 2019 1174
43 1:00:28 Seifu TURA 19 JUN 1997 ETH ETH 4 Yangzhou (CHN) 21 APR 2019 1173
44 1:00:30 Geoffrey KOECH 28 AUG 1993 KEN KEN 4 Praha (CZE) 06 APR 2019 1172
45 1:00:31 Bayelign TESHAGER 09 FEB 2000 ETH ETH 1 Azpeitia (ESP) 30 MAR 2019 1171
46 1:00:32 Antenayeh DAGNACHEW ETH ETH 1 Shanghai (CHN) 21 APR 2019 1170
47 1:00:33 Jairus Kipchoge BIRECH 14 DEC 1992 KEN KEN 2 Milano (ITA) 24 MAR 2019 1170
48 1:00:34 Amos KURGAT 07 MAR 1992 KEN KEN 1 Gifu (JPN) 28 APR 2019 1169
49 1:00:36 Lelisa DESISA 14 JAN 1990 ETH ETH 13 Ras Al Khaimah (UAE) 08 FEB 2019 1168
50 1:00:37 Henry RONO 12 DEC 1996 KEN KEN 5 Praha (CZE) 06 APR 2019 1167
50 1:00:37 Evans MAYAKA KEN KEN 5 Yangzhou (CHN) 21 APR 2019 1167
52 1:00:40 Eric TIROP 19 MAY 1987 KEN KEN 12 Lisboa (POR) 17 MAR 2019 1165
53 1:00:41 Herpasa NEGASA 11 SEP 1993 ETH ETH 9 Manama (BRN) 15 MAR 2019 1164
53 1:00:41 Abera KUMA 31 AUG 1990 ETH ETH 2 Azpeitia (ESP) 30 MAR 2019 1164
55 1:00:43 Simon KARIUKI 13 FEB 1992 KEN KEN 2 Marugame (JPN) 03 FEB 2019 1163
55 1:00:43 Peter KWEMOI 11 AUG 1993 KEN KEN 1 Verona (ITA) 17 FEB 2019 1163
57 1:00:44 Joshua NAKER KEN KEN 10 Manama (BRN) 15 MAR 2019 1162
57 1:00:44 Philemon KIPLIMO 10 OCT 1998 KEN KEN 2 Venlo (NED) 31 MAR 2019 1162
57 1:00:44 Tsedat Abege AYANA 18 FEB 1996 ETH ETH 6 Yangzhou (CHN) 21 APR 2019 1162
60 1:00:46 Solomon Kirwa YEGO 10 MAY 1987 KEN KEN 13 Lisboa (POR) 17 MAR 2019 1161
61 1:00:47 William Malel SITONIK 01 MAR 1994 KEN KEN 3 Azpeitia (ESP) 30 MAR 2019 1160
62 1:00:53 Eyob GHEBREHIWET FANIEL 26 NOV 1992 ITA ITA 2 Padova (ITA) 28 APR 2019 1156
63 1:00:56 Joshua BELET 10 FEB 1998 KEN KEN 3 Padova (ITA) 28 APR 2019 1154
64 1:00:57 Betesfa GETAHUN 25 SEP 1998 ETH ETH 14 Lisboa (POR) 17 MAR 2019 1153
64 1:00:57 Bethwel YEGON 05 JAN 1993 KEN KEN 3 Venlo (NED) 31 MAR 2019 1153
64 1:00:57 Stephen MOKOKA 31 JAN 1985 RSA RSA 1 Port Elizabeth (RSA) 27 JUL 2019 1153
67 1:00:58 Ali KAYA 20 APR 1994 TUR TUR 6 Istanbul (TUR) 07 APR 2019 1152
68 1:00:59 Moses KIBET 23 MAR 1991 UGA UGA 6 Praha (CZE) 06 APR 2019 1152
69 1:01:00 Birhan NEBEBEW 14 AUG 1994 ETH ETH 11 Manama (BRN) 15 MAR 2019 1151
70 1:01:01 Rhonzai Lokitam KILIMO 05 SEP 1996 KEN KEN 2 Berlin (GER) 07 APR 2019 1150
70 1:01:01 Elroy GELANT 25 AUG 1986 RSA RSA 2 Port Elizabeth (RSA) 27 JUL 2019 1150
72 1:01:02 Alfred NGENO 02 MAY 1997 KEN KEN 3 Berlin (GER) 07 APR 2019 1150
73 1:01:03 Felix CHEMONGES 10 OCT 1995 UGA UGA 2 Zwolle (NED) 15 JUN 2019 1149
74 1:01:04 Eric KIPTANUI 19 APR 1990 KEN KEN 1 Barcelona (ESP) 10 FEB 2019 1148
75 1:01:05 Abebe Negewo DEGEFA 20 MAY 1984 ETH ETH 2 Barcelona (ESP) 10 FEB 2019 1148
75 1:01:05 Albert KANGOGO 16 AUG 1987 KEN KEN 3 Zwolle (NED) 15 JUN 2019 1148
77 1:01:06 Timothy TOROITICH 10 OCT 1991 UGA UGA 4 Azpeitia (ESP) 30 MAR 2019 1147
78 1:01:07 John LANGAT 31 DEC 1996 KEN KEN 4 Venlo (NED) 31 MAR 2019 1146
78 1:01:07 Moses Martin KURONG 07 JUL 1994 UGA UGA 4 Göteborg (SWE) 18 MAY 2019 1146
80 1:01:08 Mogos SHUMAY 1997 ERI ERI 15 Lisboa (POR) 17 MAR 2019 1146
80 1:01:08 Yohanes GHEBREGERGIS 01 JAN 1989 ERI ERI 16 Lisboa (POR) 17 MAR 2019 1146
80 1:01:08 Mohamed REDA EL AARABY 12 NOV 1989 MAR MAR 17 Lisboa (POR) 17 MAR 2019 1146
80 1:01:08 Elvis TABARACH 1997 KEN KEN 1 Verbania (ITA) 14 APR 2019 1146
84 1:01:10 Jonathan KORIR 20 NOV 1986 KEN KEN 4 Barcelona (ESP) 10 FEB 2019 1144
84 1:01:10 Alexander MUTISO 10 SEP 1996 KEN KEN 1 Sendai (JPN) 12 MAY 2019 1144
84 1:01:10 Taoufik ALLAM 30 APR 1989 MAR MAR 4 Zwolle (NED) 15 JUN 2019 1144
87 1:01:11 Alex KORIO 20 DEC 1990 KEN KEN 14 Ras Al Khaimah (UAE) 08 FEB 2019 1144
88 1:01:13 Daniel MESFUN 01 JAN 1988 ERI ERI 1 Tempe, AZ (USA) 20 JAN 2019 1142
88 1:01:13 Mustapha EL AZIZ 24 DEC 1985 MAR MAR 1 Kenitra (MAR) 23 JUN 2019 1142
90 1:01:16 Teshome MEKONEN 05 AUG 1995 ETH ETH 12 Manama (BRN) 15 MAR 2019 1140
90 1:01:16 Emmanuel Kipkemei BETT 30 MAR 1983 KEN KEN 5 Azpeitia (ESP) 30 MAR 2019 1140
92 1:01:17 Napoleon SOLOMON 14 FEB 1994 SWE SWE 5 Barcelona (ESP) 10 FEB 2019 1139
93 1:01:18 Robel FSIHA 07 MAR 1996 SWE SWE 13 Manama (BRN) 15 MAR 2019 1139
93 1:01:18 Sondre Nordstad MOEN 12 JAN 1991 NOR NOR 1 Gdynia (POL) 17 MAR 2019 1139
95 1:01:19 Moses KEMEI 03 SEP 1993 KEN KEN 7 Praha (CZE) 06 APR 2019 1138
95 1:01:19 Lesiba Precious MASHELE 13 OCT 1990 RSA RSA 3 Port Elizabeth (RSA) 27 JUL 2019 1138
97 1:01:20 Jacob Chesari KORIR 06 APR 1984 KEN KEN 4 Berlin (GER) 07 APR 2019 1137
98 1:01:21 Meshak KOECH 1988 KEN KEN 7 Barcelona (ESP) 10 FEB 2019 1137
99 1:01:22 Patrick TIERNAN 11 SEP 1994 AUS AUS 6 Houston, TX (USA) 20 JAN 2019 1136
99 1:01:22 Ashenafi MOGES 1994 ETH ETH 8 Barcelona (ESP) 10 FEB 2019 1136